sensor_id;sensor_type;location;lat;lon;timestamp;pressure;altitude;pressure_sealevel;temperature;humidity
46534;BME280;32260;52.008;4.752;2023-03-19T00:02:06;101103.66;;;13.08;73.89
46534;BME280;32260;52.008;4.752;2023-03-19T00:04:32;101110.81;;;13.06;74.02
46534;BME280;32260;52.008;4.752;2023-03-19T00:06:58;101109.88;;;13.07;73.94
46534;BME280;32260;52.008;4.752;2023-03-19T00:09:25;101111.66;;;13.07;73.90
46534;BME280;32260;52.008;4.752;2023-03-19T00:11:52;101118.72;;;13.08;74.21
46534;BME280;32260;52.008;4.752;2023-03-19T00:14:18;101120.63;;;13.03;74.29
46534;BME280;32260;52.008;4.752;2023-03-19T00:16:44;101117.88;;;13.07;73.79
46534;BME280;32260;52.008;4.752;2023-03-19T00:19:11;101115.31;;;13.03;74.20
46534;BME280;32260;52.008;4.752;2023-03-19T00:21:37;101114.47;;;13.02;73.69
46534;BME280;32260;52.008;4.752;2023-03-19T00:24:03;101125.97;;;13.03;73.58
46534;BME280;32260;52.008;4.752;2023-03-19T00:26:31;101127.75;;;13.02;73.81
46534;BME280;32260;52.008;4.752;2023-03-19T00:28:59;101133.09;;;13.01;73.80
46534;BME280;32260;52.008;4.752;2023-03-19T00:31:26;101134.03;;;13.00;74.00
46534;BME280;32260;52.008;4.752;2023-03-19T00:33:55;101127.88;;;12.98;73.96
46534;BME280;32260;52.008;4.752;2023-03-19T00:36:22;101134.94;;;12.99;73.83
46534;BME280;32260;52.008;4.752;2023-03-19T00:38:50;101126.97;;;12.97;73.77
46534;BME280;32260;52.008;4.752;2023-03-19T00:41:16;101132.28;;;12.99;74.42
46534;BME280;32260;52.008;4.752;2023-03-19T00:43:44;101138.56;;;12.94;73.96
46534;BME280;32260;52.008;4.752;2023-03-19T00:46:10;101137.66;;;12.95;73.41
46534;BME280;32260;52.008;4.752;2023-03-19T00:48:36;101141.28;;;12.93;73.47
46534;BME280;32260;52.008;4.752;2023-03-19T00:51:05;101136.84;;;12.93;73.84
46534;BME280;32260;52.008;4.752;2023-03-19T00:53:32;101139.53;;;12.92;74.11
46534;BME280;32260;52.008;4.752;2023-03-19T00:56:01;101135.19;;;12.88;74.13
46534;BME280;32260;52.008;4.752;2023-03-19T00:58:27;101144.97;;;12.87;74.35
46534;BME280;32260;52.008;4.752;2023-03-19T01:00:54;101141.47;;;12.85;73.82
46534;BME280;32260;52.008;4.752;2023-03-19T01:03:20;101142.53;;;12.78;74.03
46534;BME280;32260;52.008;4.752;2023-03-19T01:05:47;101136.50;;;12.71;74.12
46534;BME280;32260;52.008;4.752;2023-03-19T01:08:15;101142.81;;;12.66;74.10
46534;BME280;32260;52.008;4.752;2023-03-19T01:10:42;101140.25;;;12.61;73.91
46534;BME280;32260;52.008;4.752;2023-03-19T01:13:08;101136.03;;;12.52;74.51
46534;BME280;32260;52.008;4.752;2023-03-19T01:15:42;101146.75;;;12.49;74.82
46534;BME280;32260;52.008;4.752;2023-03-19T01:18:10;101144.28;;;12.41;74.27
46534;BME280;32260;52.008;4.752;2023-03-19T01:20:39;101129.16;;;12.43;74.66
46534;BME280;32260;52.008;4.752;2023-03-19T01:23:06;101148.69;;;12.41;74.50
46534;BME280;32260;52.008;4.752;2023-03-19T01:25:32;101135.47;;;12.39;74.39
46534;BME280;32260;52.008;4.752;2023-03-19T01:27:59;101141.63;;;12.40;74.69
46534;BME280;32260;52.008;4.752;2023-03-19T01:30:25;101135.47;;;12.39;74.65
46534;BME280;32260;52.008;4.752;2023-03-19T01:32:51;101136.28;;;12.43;74.48
46534;BME280;32260;52.008;4.752;2023-03-19T01:35:18;101146.91;;;12.43;74.44
46534;BME280;32260;52.008;4.752;2023-03-19T01:37:44;101139.06;;;12.37;74.09
46534;BME280;32260;52.008;4.752;2023-03-19T01:40:12;101150.53;;;12.39;74.23
46534;BME280;32260;52.008;4.752;2023-03-19T01:42:57;101148.66;;;12.44;74.12
46534;BME280;32260;52.008;4.752;2023-03-19T01:45:40;101150.53;;;12.39;74.67
46534;BME280;32260;52.008;4.752;2023-03-19T01:48:16;101141.72;;;12.37;74.37
46534;BME280;32260;52.008;4.752;2023-03-19T01:50:45;101145.50;;;12.26;74.51
46534;BME280;32260;52.008;4.752;2023-03-19T01:53:15;101144.66;;;12.24;73.96
46534;BME280;32260;52.008;4.752;2023-03-19T01:55:43;101146.72;;;12.11;74.65
46534;BME280;32260;52.008;4.752;2023-03-19T01:58:10;101153.81;;;12.09;74.01
46534;BME280;32260;52.008;4.752;2023-03-19T02:00:37;101149.53;;;12.04;73.69
46534;BME280;32260;52.008;4.752;2023-03-19T02:03:04;101151.38;;;11.98;73.73
46534;BME280;32260;52.008;4.752;2023-03-19T02:05:33;101144.38;;;11.94;73.77
46534;BME280;32260;52.008;4.752;2023-03-19T02:08:05;101148.88;;;11.91;74.19
46534;BME280;32260;52.008;4.752;2023-03-19T02:10:33;101145.44;;;11.86;73.12
46534;BME280;32260;52.008;4.752;2023-03-19T02:12:59;101142.88;;;11.81;73.34
46534;BME280;32260;52.008;4.752;2023-03-19T02:15:26;101150.06;;;11.76;73.68
46534;BME280;32260;52.008;4.752;2023-03-19T02:17:52;101150.88;;;11.79;73.64
46534;BME280;32260;52.008;4.752;2023-03-19T02:20:42;101157.91;;;11.82;73.37
46534;BME280;32260;52.008;4.752;2023-03-19T02:24:16;101160.69;;;11.76;73.67
46534;BME280;32260;52.008;4.752;2023-03-19T02:26:05;101163.38;;;11.74;74.23
46534;BME280;32260;52.008;4.752;2023-03-19T02:28:33;101160.63;;;11.79;73.91
46534;BME280;32260;52.008;4.752;2023-03-19T02:31:01;101164.97;;;11.83;74.44
46534;BME280;32260;52.008;4.752;2023-03-19T02:33:40;101161.25;;;11.92;74.04
46534;BME280;32260;52.008;4.752;2023-03-19T02:36:16;101161.16;;;11.95;73.85
46534;BME280;32260;52.008;4.752;2023-03-19T02:38:48;101162.06;;;11.95;73.59
46534;BME280;32260;52.008;4.752;2023-03-19T02:41:24;101162.81;;;12.02;74.04
46534;BME280;32260;52.008;4.752;2023-03-19T02:44:14;101170.03;;;11.95;74.65
46534;BME280;32260;52.008;4.752;2023-03-19T02:46:47;101165.59;;;11.97;74.47
46534;BME280;32260;52.008;4.752;2023-03-19T02:49:24;101154.97;;;11.97;74.14
46534;BME280;32260;52.008;4.752;2023-03-19T02:51:53;101167.50;;;11.89;74.52
46534;BME280;32260;52.008;4.752;2023-03-19T02:54:29;101168.34;;;11.90;74.20
46534;BME280;32260;52.008;4.752;2023-03-19T02:57:10;101167.66;;;11.80;74.42
46534;BME280;32260;52.008;4.752;2023-03-19T02:59:47;101180.94;;;11.81;73.80
46534;BME280;32260;52.008;4.752;2023-03-19T03:02:21;101176.59;;;11.76;74.15
46534;BME280;32260;52.008;4.752;2023-03-19T03:05:20;101173.97;;;11.74;74.08
46534;BME280;32260;52.008;4.752;2023-03-19T03:07:51;101169.88;;;11.56;73.84
46534;BME280;32260;52.008;4.752;2023-03-19T03:10:31;101170.00;;;11.50;73.54
46534;BME280;32260;52.008;4.752;2023-03-19T03:13:11;101165.56;;;11.52;73.37
46534;BME280;32260;52.008;4.752;2023-03-19T03:16:13;101163.09;;;11.43;73.32
46534;BME280;32260;52.008;4.752;2023-03-19T03:18:58;101172.06;;;11.36;73.52
46534;BME280;32260;52.008;4.752;2023-03-19T03:25:09;101165.69;;;11.44;73.54
46534;BME280;32260;52.008;4.752;2023-03-19T03:29:40;101170.25;;;11.38;73.54
46534;BME280;32260;52.008;4.752;2023-03-19T03:31:45;101175.56;;;11.38;73.13
46534;BME280;32260;52.008;4.752;2023-03-19T03:34:33;101179.13;;;11.37;73.40
46534;BME280;32260;52.008;4.752;2023-03-19T03:37:13;101177.34;;;11.36;73.30
46534;BME280;32260;52.008;4.752;2023-03-19T03:40:02;101176.44;;;11.38;73.95
46534;BME280;32260;52.008;4.752;2023-03-19T03:42:41;101180.03;;;11.34;73.62
46534;BME280;32260;52.008;4.752;2023-03-19T03:45:13;101175.72;;;11.28;73.64
46534;BME280;32260;52.008;4.752;2023-03-19T03:48:07;101177.41;;;11.34;73.94
46534;BME280;32260;52.008;4.752;2023-03-19T03:50:58;101169.47;;;11.31;73.67
46534;BME280;32260;52.008;4.752;2023-03-19T03:54:52;101160.59;;;11.33;73.75
46534;BME280;32260;52.008;4.752;2023-03-19T04:00:02;101165.13;;;11.27;73.98
46534;BME280;32260;52.008;4.752;2023-03-19T04:02:58;101169.66;;;11.22;74.07
46534;BME280;32260;52.008;4.752;2023-03-19T04:05:47;101174.84;;;11.28;74.04
46534;BME280;32260;52.008;4.752;2023-03-19T04:08:44;101159.88;;;11.25;73.77
46534;BME280;32260;52.008;4.752;2023-03-19T04:11:37;101165.06;;;11.31;73.80
46534;BME280;32260;52.008;4.752;2023-03-19T04:14:09;101169.63;;;11.23;74.02
46534;BME280;32260;52.008;4.752;2023-03-19T04:16:43;101176.00;;;11.13;73.77
46534;BME280;32260;52.008;4.752;2023-03-19T04:19:11;101184.84;;;11.12;73.54
46534;BME280;32260;52.008;4.752;2023-03-19T04:21:41;101184.94;;;11.06;73.89
46534;BME280;32260;52.008;4.752;2023-03-19T04:24:10;101187.59;;;11.06;73.57
46534;BME280;32260;52.008;4.752;2023-03-19T04:26:39;101182.34;;;11.01;74.13
46534;BME280;32260;52.008;4.752;2023-03-19T04:29:11;101179.50;;;11.13;73.76
46534;BME280;32260;52.008;4.752;2023-03-19T04:31:40;101180.47;;;11.09;73.29
46534;BME280;32260;52.008;4.752;2023-03-19T04:34:32;101184.94;;;11.06;73.90
46534;BME280;32260;52.008;4.752;2023-03-19T04:37:06;101183.13;;;11.08;73.12
46534;BME280;32260;52.008;4.752;2023-03-19T04:39:35;101183.28;;;10.98;73.74
46534;BME280;32260;52.008;4.752;2023-03-19T04:42:05;101197.34;;;11.04;73.83
46534;BME280;32260;52.008;4.752;2023-03-19T04:44:31;101186.69;;;11.07;73.49
46534;BME280;32260;52.008;4.752;2023-03-19T04:47:03;101205.34;;;10.99;73.50
46534;BME280;32260;52.008;4.752;2023-03-19T04:49:34;101208.09;;;10.93;73.98
46534;BME280;32260;52.008;4.752;2023-03-19T04:52:11;101209.72;;;11.03;73.70
46534;BME280;32260;52.008;4.752;2023-03-19T04:54:50;101209.91;;;10.92;74.20
46534;BME280;32260;52.008;4.752;2023-03-19T04:57:21;101209.84;;;10.97;73.64
46534;BME280;32260;52.008;4.752;2023-03-19T04:59:52;101220.41;;;10.98;73.35
46534;BME280;32260;52.008;4.752;2023-03-19T05:02:18;101231.94;;;10.96;73.71
46534;BME280;32260;52.008;4.752;2023-03-19T05:04:52;101235.50;;;10.93;73.44
46534;BME280;32260;52.008;4.752;2023-03-19T05:07:19;101235.63;;;10.86;73.86
46534;BME280;32260;52.008;4.752;2023-03-19T05:09:50;101224.00;;;10.93;73.34
46534;BME280;32260;52.008;4.752;2023-03-19T05:12:16;101224.97;;;10.89;73.60
46534;BME280;32260;52.008;4.752;2023-03-19T05:14:42;101231.06;;;10.95;73.74
46534;BME280;32260;52.008;4.752;2023-03-19T05:17:11;101227.47;;;10.99;73.45
46534;BME280;32260;52.008;4.752;2023-03-19T05:19:40;101230.16;;;10.98;73.20
46534;BME280;32260;52.008;4.752;2023-03-19T05:22:06;101227.41;;;11.03;73.15
46534;BME280;32260;52.008;4.752;2023-03-19T05:24:32;101228.31;;;11.00;73.06
46534;BME280;32260;52.008;4.752;2023-03-19T05:26:58;101239.00;;;10.97;73.24
46534;BME280;32260;52.008;4.752;2023-03-19T05:29:24;101230.19;;;10.95;73.15
46534;BME280;32260;52.008;4.752;2023-03-19T05:31:54;101241.69;;;10.95;73.20
46534;BME280;32260;52.008;4.752;2023-03-19T05:34:24;101243.41;;;10.96;73.13
46534;BME280;32260;52.008;4.752;2023-03-19T05:36:50;101236.38;;;10.94;73.36
46534;BME280;32260;52.008;4.752;2023-03-19T05:39:16;101238.16;;;10.93;73.33
46534;BME280;32260;52.008;4.752;2023-03-19T05:41:42;101248.72;;;10.96;73.40
46534;BME280;32260;52.008;4.752;2023-03-19T05:44:08;101247.94;;;10.90;73.14
46534;BME280;32260;52.008;4.752;2023-03-19T05:46:40;101257.69;;;10.89;73.60
46534;BME280;32260;52.008;4.752;2023-03-19T05:49:07;101263.00;;;10.86;73.58
46534;BME280;32260;52.008;4.752;2023-03-19T05:51:33;101265.72;;;10.83;73.35
46534;BME280;32260;52.008;4.752;2023-03-19T05:53:59;101270.16;;;10.81;73.44
46534;BME280;32260;52.008;4.752;2023-03-19T05:56:28;101271.09;;;10.75;73.68
46534;BME280;32260;52.008;4.752;2023-03-19T05:58:54;101272.84;;;10.76;73.43
46534;BME280;32260;52.008;4.752;2023-03-19T06:01:24;101280.88;;;10.73;73.82
46534;BME280;32260;52.008;4.752;2023-03-19T06:03:51;101286.19;;;10.70;73.97
46534;BME280;32260;52.008;4.752;2023-03-19T06:06:17;101284.47;;;10.67;74.18
46534;BME280;32260;52.008;4.752;2023-03-19T06:08:43;101280.09;;;10.63;74.32
46534;BME280;32260;52.008;4.752;2023-03-19T06:11:09;101286.19;;;10.72;73.83
46534;BME280;32260;52.008;4.752;2023-03-19T06:13:36;101282.75;;;10.63;74.40
46534;BME280;32260;52.008;4.752;2023-03-19T06:16:02;101282.72;;;10.65;74.37
46534;BME280;32260;52.008;4.752;2023-03-19T06:18:28;101276.50;;;10.71;74.11
46534;BME280;32260;52.008;4.752;2023-03-19T06:20:54;101288.06;;;10.63;74.92
46534;BME280;32260;52.008;4.752;2023-03-19T06:23:20;101285.31;;;10.70;74.49
46534;BME280;32260;52.008;4.752;2023-03-19T06:25:46;101279.06;;;10.74;74.26
46534;BME280;32260;52.008;4.752;2023-03-19T06:28:13;101286.09;;;10.78;74.37
46534;BME280;32260;52.008;4.752;2023-03-19T06:30:39;101292.22;;;10.81;74.21
46534;BME280;32260;52.008;4.752;2023-03-19T06:33:05;101301.09;;;10.80;74.41
46534;BME280;32260;52.008;4.752;2023-03-19T06:35:31;101298.34;;;10.85;73.97
46534;BME280;32260;52.008;4.752;2023-03-19T06:37:58;101313.44;;;10.80;74.08
46534;BME280;32260;52.008;4.752;2023-03-19T06:40:24;101301.03;;;10.83;73.64
46534;BME280;32260;52.008;4.752;2023-03-19T06:42:50;101312.50;;;10.84;73.85
46534;BME280;32260;52.008;4.752;2023-03-19T06:45:17;101317.81;;;10.86;73.89
46534;BME280;32260;52.008;4.752;2023-03-19T06:47:46;101322.16;;;10.90;73.86
46534;BME280;32260;52.008;4.752;2023-03-19T06:50:13;101335.44;;;10.88;73.76
46534;BME280;32260;52.008;4.752;2023-03-19T06:52:41;101337.28;;;10.83;74.23
46534;BME280;32260;52.008;4.752;2023-03-19T06:55:08;101340.78;;;10.85;73.74
46534;BME280;32260;52.008;4.752;2023-03-19T06:57:35;101345.22;;;10.84;73.75
46534;BME280;32260;52.008;4.752;2023-03-19T07:00:02;101344.31;;;10.84;74.04
46534;BME280;32260;52.008;4.752;2023-03-19T07:02:29;101344.22;;;10.90;74.36
46534;BME280;32260;52.008;4.752;2023-03-19T07:05:02;101341.63;;;10.89;74.46
46534;BME280;32260;52.008;4.752;2023-03-19T07:07:31;101345.09;;;10.92;74.12
46534;BME280;32260;52.008;4.752;2023-03-19T07:09:57;101353.06;;;10.92;74.27
46534;BME280;32260;52.008;4.752;2023-03-19T07:12:23;101353.00;;;10.97;74.37
46534;BME280;32260;52.008;4.752;2023-03-19T07:14:53;101359.13;;;11.02;74.21
46534;BME280;32260;52.008;4.752;2023-03-19T07:17:21;101352.81;;;11.11;74.02
46534;BME280;32260;52.008;4.752;2023-03-19T07:19:48;101356.31;;;11.11;74.00
46534;BME280;32260;52.008;4.752;2023-03-19T07:22:14;101348.25;;;11.21;74.55
46534;BME280;32260;52.008;4.752;2023-03-19T07:24:40;101354.34;;;11.27;74.14
46534;BME280;32260;52.008;4.752;2023-03-19T07:27:06;101357.84;;;11.29;74.23
46534;BME280;32260;52.008;4.752;2023-03-19T07:29:32;101359.53;;;11.33;73.83
46534;BME280;32260;52.008;4.752;2023-03-19T07:31:58;101360.44;;;11.34;74.06
46534;BME280;32260;52.008;4.752;2023-03-19T07:34:25;101370.97;;;11.40;73.54
46534;BME280;32260;52.008;4.752;2023-03-19T07:36:51;101368.28;;;11.42;73.64
46534;BME280;32260;52.008;4.752;2023-03-19T07:39:18;101372.69;;;11.43;73.92
46534;BME280;32260;52.008;4.752;2023-03-19T07:41:45;101365.63;;;11.42;74.05
46534;BME280;32260;52.008;4.752;2023-03-19T07:44:14;101370.06;;;11.40;73.92
46534;BME280;32260;52.008;4.752;2023-03-19T07:46:41;101369.06;;;11.48;73.59
46534;BME280;32260;52.008;4.752;2023-03-19T07:49:07;101376.09;;;11.51;73.67
46534;BME280;32260;52.008;4.752;2023-03-19T07:51:34;101378.72;;;11.54;73.56
46534;BME280;32260;52.008;4.752;2023-03-19T07:54:00;101384.88;;;11.55;73.69
46534;BME280;32260;52.008;4.752;2023-03-19T07:56:26;101376.88;;;11.56;73.64
46534;BME280;32260;52.008;4.752;2023-03-19T07:58:52;101384.78;;;11.61;73.38
46534;BME280;32260;52.008;4.752;2023-03-19T08:01:18;101391.81;;;11.63;73.30
46534;BME280;32260;52.008;4.752;2023-03-19T08:03:45;101394.47;;;11.63;72.96
46534;BME280;32260;52.008;4.752;2023-03-19T08:06:13;101400.72;;;11.61;73.56
46534;BME280;32260;52.008;4.752;2023-03-19T08:08:39;101401.56;;;11.63;73.38
46534;BME280;32260;52.008;4.752;2023-03-19T08:11:06;101399.84;;;11.60;73.12
46534;BME280;32260;52.008;4.752;2023-03-19T08:13:32;101399.75;;;11.67;73.05
46534;BME280;32260;52.008;4.752;2023-03-19T08:15:58;101403.25;;;11.69;73.26
46534;BME280;32260;52.008;4.752;2023-03-19T08:18:24;101404.91;;;11.76;73.29
46534;BME280;32260;52.008;4.752;2023-03-19T08:20:51;101409.28;;;11.78;73.12
46534;BME280;32260;52.008;4.752;2023-03-19T08:23:18;101416.31;;;11.82;73.04
46534;BME280;32260;52.008;4.752;2023-03-19T08:25:44;101424.25;;;11.84;72.89
46534;BME280;32260;52.008;4.752;2023-03-19T08:28:10;101423.28;;;11.88;72.62
46534;BME280;32260;52.008;4.752;2023-03-19T08:30:37;101425.91;;;11.91;72.56
46534;BME280;32260;52.008;4.752;2023-03-19T08:33:03;101420.53;;;11.97;72.65
46534;BME280;32260;52.008;4.752;2023-03-19T08:35:29;101416.06;;;12.00;72.82
46534;BME280;32260;52.008;4.752;2023-03-19T08:37:55;101424.09;;;11.96;72.62
46534;BME280;32260;52.008;4.752;2023-03-19T08:40:22;101429.31;;;12.01;72.47
46534;BME280;32260;52.008;4.752;2023-03-19T08:42:48;101431.16;;;11.94;71.91
46534;BME280;32260;52.008;4.752;2023-03-19T08:45:15;101438.16;;;12.02;72.39
46534;BME280;32260;52.008;4.752;2023-03-19T08:47:42;101438.16;;;12.02;72.01
46534;BME280;32260;52.008;4.752;2023-03-19T08:50:09;101444.31;;;12.05;72.31
46534;BME280;32260;52.008;4.752;2023-03-19T08:52:35;101441.63;;;12.07;72.06
46534;BME280;32260;52.008;4.752;2023-03-19T08:55:04;101443.31;;;12.11;72.31
46534;BME280;32260;52.008;4.752;2023-03-19T08:57:31;101442.38;;;12.15;71.85
46534;BME280;32260;52.008;4.752;2023-03-19T08:59:58;101446.00;;;12.09;71.59
46534;BME280;32260;52.008;4.752;2023-03-19T09:02:24;101447.56;;;12.23;71.49
46534;BME280;32260;52.008;4.752;2023-03-19T09:04:50;101448.34;;;12.28;71.88
46534;BME280;32260;52.008;4.752;2023-03-19T09:07:16;101446.56;;;12.28;71.76
46534;BME280;32260;52.008;4.752;2023-03-19T09:09:54;101449.09;;;12.35;71.40
46534;BME280;32260;52.008;4.752;2023-03-19T09:12:29;101449.91;;;12.40;71.70
46534;BME280;32260;52.008;4.752;2023-03-19T09:15:01;101458.81;;;12.39;70.92
46534;BME280;32260;52.008;4.752;2023-03-19T09:17:28;101463.31;;;12.34;70.82
46534;BME280;32260;52.008;4.752;2023-03-19T09:19:54;101462.38;;;12.36;70.54
46534;BME280;32260;52.008;4.752;2023-03-19T09:22:20;101453.34;;;12.46;71.63
46534;BME280;32260;52.008;4.752;2023-03-19T09:24:46;101450.59;;;12.50;71.39
46534;BME280;32260;52.008;4.752;2023-03-19T09:27:12;101460.31;;;12.52;70.54
46534;BME280;32260;52.008;4.752;2023-03-19T09:29:38;101465.50;;;12.58;71.05
46534;BME280;32260;52.008;4.752;2023-03-19T09:32:04;101467.38;;;12.55;69.91
46534;BME280;32260;52.008;4.752;2023-03-19T09:34:31;101465.47;;;12.61;70.19
46534;BME280;32260;52.008;4.752;2023-03-19T09:36:57;101465.34;;;12.68;70.94
46534;BME280;32260;52.008;4.752;2023-03-19T09:39:23;101468.88;;;12.68;70.00
46534;BME280;32260;52.008;4.752;2023-03-19T09:42:07;101480.22;;;12.78;69.71
46534;BME280;32260;52.008;4.752;2023-03-19T09:44:40;101483.81;;;12.75;69.18
46534;BME280;32260;52.008;4.752;2023-03-19T09:47:21;101482.84;;;12.81;69.11
46534;BME280;32260;52.008;4.752;2023-03-19T09:49:52;101490.72;;;12.86;69.81
46534;BME280;32260;52.008;4.752;2023-03-19T09:52:43;101491.41;;;12.95;69.08
46534;BME280;32260;52.008;4.752;2023-03-19T09:55:50;101494.00;;;13.00;69.17
46534;BME280;32260;52.008;4.752;2023-03-19T09:58:12;101506.44;;;12.98;69.22
46534;BME280;32260;52.008;4.752;2023-03-19T10:00:39;101513.63;;;12.93;68.91
46534;BME280;32260;52.008;4.752;2023-03-19T10:03:31;101519.72;;;13.00;68.78
46534;BME280;32260;52.008;4.752;2023-03-19T10:06:19;101515.31;;;12.99;69.17
46534;BME280;32260;52.008;4.752;2023-03-19T10:09:25;101520.72;;;12.94;68.83
46534;BME280;32260;52.008;4.752;2023-03-19T10:13:14;101527.00;;;12.88;68.87
46534;BME280;32260;52.008;4.752;2023-03-19T10:15:17;101526.13;;;12.88;68.63
46534;BME280;32260;52.008;4.752;2023-03-19T10:18:06;101527.16;;;12.81;68.31
46534;BME280;32260;52.008;4.752;2023-03-19T10:20:57;101530.59;;;12.86;68.83
46534;BME280;32260;52.008;4.752;2023-03-19T10:23:44;101527.16;;;12.81;68.59
46534;BME280;32260;52.008;4.752;2023-03-19T10:26:16;101529.78;;;12.82;69.28
46534;BME280;32260;52.008;4.752;2023-03-19T10:28:45;101541.28;;;12.84;69.37
46534;BME280;32260;52.008;4.752;2023-03-19T10:36:41;101546.69;;;12.78;69.24
46534;BME280;32260;52.008;4.752;2023-03-19T10:39:07;101544.91;;;12.80;69.52
46534;BME280;32260;52.008;4.752;2023-03-19T10:44:27;101548.28;;;12.88;69.17
46534;BME280;32260;52.008;4.752;2023-03-19T10:46:58;101549.00;;;13.00;68.18
46534;BME280;32260;52.008;4.752;2023-03-19T10:49:25;101556.22;;;12.91;68.47
46534;BME280;32260;52.008;4.752;2023-03-19T10:51:51;101557.88;;;12.97;68.75
46534;BME280;32260;52.008;4.752;2023-03-19T10:54:21;101558.78;;;12.98;68.34
46534;BME280;32260;52.008;4.752;2023-03-19T10:56:48;101560.53;;;12.99;68.81
46534;BME280;32260;52.008;4.752;2023-03-19T10:59:25;101552.44;;;13.03;68.44
46534;BME280;32260;52.008;4.752;2023-03-19T11:02:06;101560.41;;;13.05;68.39
46534;BME280;32260;52.008;4.752;2023-03-19T11:04:40;101556.81;;;13.06;68.21
46534;BME280;32260;52.008;4.752;2023-03-19T11:07:12;101563.91;;;13.07;68.19
46534;BME280;32260;52.008;4.752;2023-03-19T11:09:41;101562.09;;;13.09;68.54
46534;BME280;32260;52.008;4.752;2023-03-19T11:12:31;101557.53;;;13.17;68.21
46534;BME280;32260;52.008;4.752;2023-03-19T11:14:59;101556.59;;;13.20;68.73
46534;BME280;32260;52.008;4.752;2023-03-19T11:17:49;101557.28;;;13.28;68.09
46534;BME280;32260;52.008;4.752;2023-03-19T11:20:31;101557.25;;;13.31;68.52
46534;BME280;32260;52.008;4.752;2023-03-19T11:22:59;101561.66;;;13.31;68.32
46534;BME280;32260;52.008;4.752;2023-03-19T11:25:33;101568.75;;;13.32;67.87
46534;BME280;32260;52.008;4.752;2023-03-19T11:28:05;101559.78;;;13.39;68.00
46534;BME280;32260;52.008;4.752;2023-03-19T11:48:25;101558.47;;;14.01;67.54
46534;BME280;32260;52.008;4.752;2023-03-19T11:50:47;101554.28;;;14.28;67.11
46534;BME280;32260;52.008;4.752;2023-03-19T11:53:49;101562.59;;;14.52;65.51
46534;BME280;32260;52.008;4.752;2023-03-19T11:56:28;101560.50;;;14.65;65.75
46534;BME280;32260;52.008;4.752;2023-03-19T12:00:00;101560.09;;;14.80;66.08
46534;BME280;32260;52.008;4.752;2023-03-19T12:08:08;101561.25;;;15.04;63.38
46534;BME280;32260;52.008;4.752;2023-03-19T12:17:01;101571.72;;;15.12;62.77
46534;BME280;32260;52.008;4.752;2023-03-19T12:22:49;101562.63;;;15.19;63.00
46534;BME280;32260;52.008;4.752;2023-03-19T12:25:57;101565.00;;;15.29;63.82
46534;BME280;32260;52.008;4.752;2023-03-19T12:36:24;101567.34;;;15.41;59.94
46534;BME280;32260;52.008;4.752;2023-03-19T12:39:10;101564.13;;;15.60;60.98
46534;BME280;32260;52.008;4.752;2023-03-19T12:41:42;101567.16;;;15.79;61.54
46534;BME280;32260;52.008;4.752;2023-03-19T12:44:46;101566.38;;;16.05;60.77
46534;BME280;32260;52.008;4.752;2023-03-19T12:47:35;101573.31;;;16.11;58.77
46534;BME280;32260;52.008;4.752;2023-03-19T12:49:57;101571.16;;;16.24;60.17
46534;BME280;32260;52.008;4.752;2023-03-19T12:55:33;101581.88;;;16.22;58.91
46534;BME280;32260;52.008;4.752;2023-03-19T13:01:07;101571.22;;;16.21;59.31
46534;BME280;32260;52.008;4.752;2023-03-19T13:03:48;101569.41;;;16.21;59.04
46534;BME280;32260;52.008;4.752;2023-03-19T13:09:43;101582.00;;;16.73;58.17
46534;BME280;32260;52.008;4.752;2023-03-19T13:12:20;101575.25;;;16.88;58.26
46534;BME280;32260;52.008;4.752;2023-03-19T13:14:55;101587.31;;;16.74;55.75
46534;BME280;32260;52.008;4.752;2023-03-19T13:18:04;101581.25;;;16.69;57.55
46534;BME280;32260;52.008;4.752;2023-03-19T13:20:27;101585.41;;;16.51;57.10
46534;BME280;32260;52.008;4.752;2023-03-19T13:23:00;101583.81;;;16.45;57.95
46534;BME280;32260;52.008;4.752;2023-03-19T13:25:34;101584.66;;;16.46;56.80
46534;BME280;32260;52.008;4.752;2023-03-19T13:28:08;101604.34;;;16.45;56.75
46534;BME280;32260;52.008;4.752;2023-03-19T13:30:35;101605.47;;;16.36;56.87
46534;BME280;32260;52.008;4.752;2023-03-19T13:33:05;101593.19;;;16.30;58.07
46534;BME280;32260;52.008;4.752;2023-03-19T13:35:41;101586.16;;;16.28;57.46
46534;BME280;32260;52.008;4.752;2023-03-19T13:51:26;101591.25;;;16.07;56.84
46534;BME280;32260;52.008;4.752;2023-03-19T13:57:18;101587.97;;;15.97;57.47
46534;BME280;32260;52.008;4.752;2023-03-19T13:59:49;101605.50;;;15.76;56.89
46534;BME280;32260;52.008;4.752;2023-03-19T14:07:37;101615.06;;;15.53;56.86
46534;BME280;32260;52.008;4.752;2023-03-19T14:10:12;101615.16;;;15.50;57.34
46534;BME280;32260;52.008;4.752;2023-03-19T14:12:42;101619.84;;;15.42;57.41
46534;BME280;32260;52.008;4.752;2023-03-19T14:17:59;101621.66;;;15.40;57.52
46534;BME280;32260;52.008;4.752;2023-03-19T14:20:31;101619.94;;;15.37;57.69
46534;BME280;32260;52.008;4.752;2023-03-19T14:23:17;101621.66;;;15.40;57.03
46534;BME280;32260;52.008;4.752;2023-03-19T14:26:10;101621.72;;;15.39;57.53
46534;BME280;32260;52.008;4.752;2023-03-19T14:31:24;101625.88;;;15.16;57.43
46534;BME280;32260;52.008;4.752;2023-03-19T14:36:30;101620.66;;;15.13;57.91
46534;BME280;32260;52.008;4.752;2023-03-19T14:38:59;101612.59;;;15.14;58.15
46534;BME280;32260;52.008;4.752;2023-03-19T14:41:29;101618.16;;;15.05;58.33
46534;BME280;32260;52.008;4.752;2023-03-19T14:49:42;101621.28;;;14.88;58.66
46534;BME280;32260;52.008;4.752;2023-03-19T14:52:29;101630.47;;;14.76;59.50
46534;BME280;32260;52.008;4.752;2023-03-19T14:55:02;101631.72;;;14.60;60.07
46534;BME280;32260;52.008;4.752;2023-03-19T14:57:31;101634.78;;;14.43;60.61
46534;BME280;32260;52.008;4.752;2023-03-19T14:59:58;101638.44;;;14.38;60.51